Time;durP1;ratioP1;P1;durP2;ratioP2;P2;SDS_P1;SDS_P2;PMS_P1;PMS_P2;Temp;Humidity;BMP_temperature;BMP_pressure;BME280_temperature;BME280_humidity;BME280_pressure;Samples;Min_cycle;Max_cycle;Signal;HPM_P1;HPM_P2
2022/09/02 00:02:12;;;;;;;7.80;1.55;;;;;;;16.91;51.74;101719.16;5031756;28;20044;-71
2022/09/02 00:04:37;;;;;;;2.42;0.93;;;;;;;17.10;51.26;101722.72;5033077;28;20029;-72
2022/09/02 00:07:03;;;;;;;7.38;1.20;;;;;;;16.92;51.79;101718.19;5033130;28;20507;-71
2022/09/02 00:09:29;;;;;;;4.35;1.17;;;;;;;16.95;51.76;101713.56;5031748;28;20052;-71
2022/09/02 00:11:55;;;;;;;5.32;1.20;;;;;;;16.83;51.87;101714.19;5033096;28;20033;-71
2022/09/02 00:14:28;;;;;;;1.98;1.00;;;;;;;16.86;52.05;101720.78;5031817;28;20025;-71
2022/09/02 00:16:54;;;;;;;2.35;1.00;;;;;;;16.60;52.58;101711.19;5032942;28;20036;-71
2022/09/02 00:19:22;;;;;;;4.47;1.10;;;;;;;16.85;52.06;101719.19;5031455;28;20473;-72
2022/09/02 00:21:49;;;;;;;1.67;1.02;;;;;;;16.73;52.47;101713.78;5031653;28;20392;-72
2022/09/02 00:24:16;;;;;;;3.00;0.90;;;;;;;16.53;53.19;101713.03;5031660;28;20112;-72
2022/09/02 00:26:42;;;;;;;6.68;1.17;;;;;;;16.72;52.90;101712.19;5032962;28;20104;-71
2022/09/02 00:29:08;;;;;;;2.88;1.48;;;;;;;16.64;53.23;101710.59;5032708;28;20021;-72
2022/09/02 00:31:35;;;;;;;4.45;1.13;;;;;;;16.54;53.63;101712.00;5031606;28;20032;-72
2022/09/02 00:34:00;;;;;;;3.88;0.85;;;;;;;16.49;53.88;101717.84;5032764;28;20110;-72
2022/09/02 00:36:26;;;;;;;3.58;1.00;;;;;;;16.54;53.88;101712.00;5031783;28;20041;-72
2022/09/02 00:38:51;;;;;;;7.28;1.20;;;;;;;16.41;54.42;101705.81;5032672;28;20029;-72
2022/09/02 00:41:20;;;;;;;4.97;1.13;;;;;;;16.54;54.12;101712.81;5031345;28;20033;-72
2022/09/02 00:44:01;;;;;;;2.13;1.13;;;;;;;16.36;54.20;101694.38;5032520;28;20032;-72
2022/09/02 00:46:28;;;;;;;4.10;1.02;;;;;;;16.25;54.74;101708.81;5036430;28;20060;-72
2022/09/02 00:49:05;;;;;;;8.05;1.30;;;;;;;16.22;54.84;101702.22;5036419;28;20361;-72
2022/09/02 00:52:01;;;;;;;2.22;1.27;;;;;;;16.19;55.02;101697.41;5036383;28;20084;-72
2022/09/02 00:54:29;;;;;;;3.33;1.23;;;;;;;16.19;54.87;101700.00;5034812;28;20059;-72
2022/09/02 00:56:55;;;;;;;2.97;1.05;;;;;;;16.13;55.01;101685.16;5035235;28;20032;-72
2022/09/02 00:59:27;;;;;;;4.60;1.33;;;;;;;16.18;54.71;101693.19;5036166;28;20048;-72
2022/09/02 01:01:53;;;;;;;1.88;1.15;;;;;;;16.26;54.92;101689.59;5034945;28;20049;-72
2022/09/02 01:04:19;;;;;;;2.60;1.15;;;;;;;16.12;54.87;101695.81;5036156;28;20056;-73
2022/09/02 01:06:45;;;;;;;1.80;1.00;;;;;;;15.99;54.96;101667.91;5036058;28;20083;-72
2022/09/02 01:09:14;;;;;;;1.58;0.88;;;;;;;16.08;55.12;101692.00;5035986;28;20100;-72
2022/09/02 01:11:46;;;;;;;2.88;1.08;;;;;;;16.13;54.97;101679.16;5034720;28;20022;-72
2022/09/02 01:14:14;;;;;;;1.58;1.00;;;;;;;16.07;55.07;101674.75;5035879;28;20507;-72
2022/09/02 01:16:43;;;;;;;6.35;1.45;;;;;;;16.02;55.01;101688.38;5034532;28;20026;-73
2022/09/02 01:19:25;;;;;;;1.88;1.27;;;;;;;16.01;55.32;101677.16;5035634;28;20030;-72
2022/09/02 01:21:52;;;;;;;3.53;1.10;;;;;;;15.85;55.76;101687.97;5035712;28;20109;-72
2022/09/02 01:24:20;;;;;;;3.70;1.13;;;;;;;16.06;55.20;101681.78;5035602;28;20025;-72
2022/09/02 01:26:46;;;;;;;3.10;1.30;;;;;;;15.84;55.97;101675.16;5035695;28;20027;-72
2022/09/02 01:29:12;;;;;;;2.47;1.05;;;;;;;15.92;55.57;101682.78;5035664;28;20095;-72
2022/09/02 01:31:38;;;;;;;3.90;1.30;;;;;;;16.02;55.74;101675.34;5034252;28;20049;-72
2022/09/02 01:34:05;;;;;;;3.55;1.10;;;;;;;15.91;55.55;101676.78;5035584;28;20030;-71
2022/09/02 01:36:31;;;;;;;1.52;1.00;;;;;;;15.85;55.99;101669.72;5034086;28;20033;-72
2022/09/02 01:38:56;;;;;;;4.95;1.45;;;;;;;15.71;56.52;101666.31;5035366;28;20112;-72
2022/09/02 01:41:21;;;;;;;2.60;1.20;;;;;;;15.83;56.11;101663.94;5035416;28;20049;-71
2022/09/02 01:43:47;;;;;;;2.22;1.23;;;;;;;15.69;56.25;101659.72;5035565;28;20022;-72
2022/09/02 01:46:12;;;;;;;4.30;1.30;;;;;;;15.71;56.37;101666.31;5035215;28;20029;-70
2022/09/02 01:48:37;;;;;;;7.20;1.10;;;;;;;15.66;56.49;101665.28;5035292;28;20108;-70
2022/09/02 01:51:03;;;;;;;3.45;1.35;;;;;;;15.65;56.44;101661.06;5033944;28;20496;-71
2022/09/02 01:53:30;;;;;;;2.13;1.05;;;;;;;15.76;56.03;101657.91;5034074;28;20032;-71
2022/09/02 01:55:55;;;;;;;2.70;1.38;;;;;;;15.67;56.19;101654.66;5034952;28;20540;-71
2022/09/02 01:58:21;;;;;;;1.77;1.17;;;;;;;15.76;56.15;101650.88;5034980;28;20159;-71
2022/09/02 02:00:46;;;;;;;2.53;1.20;;;;;;;15.63;56.58;101661.28;5035139;28;20033;-70
2022/09/02 02:03:12;;;;;;;2.38;1.10;;;;;;;15.63;56.51;101658.66;5035030;28;20030;-70
2022/09/02 02:05:37;;;;;;;4.15;1.20;;;;;;;15.62;56.90;101657.03;5035023;28;20431;-72
2022/09/02 02:08:03;;;;;;;5.68;1.15;;;;;;;15.68;56.67;101650.25;5034902;28;20018;-71
2022/09/02 02:10:29;;;;;;;5.82;1.38;;;;;;;15.55;57.19;101654.44;5033650;28;20025;-71
2022/09/02 02:12:55;;;;;;;2.65;1.15;;;;;;;15.75;56.72;101648.47;5034900;28;20033;-71
2022/09/02 02:15:21;;;;;;;3.17;1.17;;;;;;;15.60;57.24;101653.84;5033492;28;20098;-71
2022/09/02 02:17:46;;;;;;;2.13;1.38;;;;;;;15.60;57.33;101653.06;5033546;28;20032;-72
2022/09/02 02:20:16;;;;;;;5.40;1.27;;;;;;;15.55;57.42;101651.84;5033331;28;20037;-71
2022/09/02 02:22:42;;;;;;;3.42;1.35;;;;;;;15.53;58.04;101642.59;5034728;28;20029;-72
2022/09/02 02:25:09;;;;;;;3.13;1.48;;;;;;;15.53;57.53;101638.19;5033253;28;20120;-71
2022/09/02 02:27:34;;;;;;;4.18;1.23;;;;;;;15.35;58.09;101640.59;5034462;28;20025;-71
2022/09/02 02:30:00;;;;;;;7.45;1.23;;;;;;;15.40;58.33;101647.81;5034596;28;20076;-71
2022/09/02 02:32:25;;;;;;;6.18;1.25;;;;;;;15.44;57.87;101641.19;5033217;28;20025;-71
2022/09/02 02:34:50;;;;;;;2.33;1.10;;;;;;;15.42;58.11;101637.97;5034667;28;20029;-72
2022/09/02 02:37:16;;;;;;;4.80;1.40;;;;;;;15.54;57.79;101646.84;5034404;28;20031;-71
2022/09/02 02:39:42;;;;;;;3.47;1.40;;;;;;;15.47;58.07;101640.81;5034304;28;20022;-71
2022/09/02 02:42:07;;;;;;;2.13;1.05;;;;;;;15.37;58.39;101632.59;5034446;28;20029;-71
2022/09/02 02:44:33;;;;;;;2.03;1.40;;;;;;;15.26;58.91;101642.56;5034254;28;20057;-71
2022/09/02 02:46:59;;;;;;;1.60;1.00;;;;;;;15.21;58.99;101642.34;5032930;28;20116;-71
2022/09/02 02:49:26;;;;;;;2.85;1.30;;;;;;;15.18;59.44;101641.94;5032959;28;20025;-71
2022/09/02 02:51:52;;;;;;;3.92;1.17;;;;;;;15.23;59.07;101642.16;5032901;28;20025;-71
2022/09/02 02:54:19;;;;;;;1.85;1.13;;;;;;;15.22;59.23;101636.16;5033822;28;20535;-71
2022/09/02 02:56:44;;;;;;;7.85;1.60;;;;;;;15.22;59.15;101636.16;5032891;28;20021;-71
2022/09/02 02:59:09;;;;;;;1.50;1.10;;;;;;;15.09;59.09;101630.91;5034040;28;20075;-71
2022/09/02 03:01:35;;;;;;;2.17;1.30;;;;;;;15.08;59.41;101629.31;5033977;28;20473;-73
2022/09/02 03:04:00;;;;;;;3.35;1.50;;;;;;;15.10;59.79;101632.50;5033973;28;20384;-71
2022/09/02 03:06:25;;;;;;;1.60;1.13;;;;;;;15.06;59.60;101624.28;5033964;28;20600;-71
2022/09/02 03:08:52;;;;;;;2.03;1.20;;;;;;;14.95;60.46;101627.44;5032362;28;20416;-71
2022/09/02 03:11:21;;;;;;;3.15;1.40;;;;;;;14.96;60.10;101625.66;5033814;28;20025;-71
2022/09/02 03:13:47;;;;;;;1.65;1.10;;;;;;;15.01;59.85;101628.47;5033751;28;20408;-72
2022/09/02 03:16:12;;;;;;;2.83;1.23;;;;;;;14.90;60.07;101627.22;5033581;28;20041;-71
2022/09/02 03:18:37;;;;;;;2.60;0.95;;;;;;;14.91;60.12;101628.06;5032339;28;20038;-71
2022/09/02 03:21:07;;;;;;;2.97;1.10;;;;;;;15.00;59.68;101619.88;5033752;28;20393;-72
2022/09/02 03:23:32;;;;;;;2.05;1.10;;;;;;;14.92;59.95;101621.84;5034071;28;20104;-71
2022/09/02 03:25:57;;;;;;;3.22;1.40;;;;;;;14.85;60.45;101619.22;5032081;28;20091;-72
2022/09/02 03:28:23;;;;;;;2.75;1.23;;;;;;;14.73;60.46;101599.94;5032276;28;20112;-71
2022/09/02 03:30:48;;;;;;;5.72;1.25;;;;;;;14.79;60.70;101592.19;5033493;28;20150;-71
2022/09/02 03:33:14;;;;;;;1.52;1.10;;;;;;;15.08;60.14;101616.28;5033458;28;20021;-71
2022/09/02 03:35:42;;;;;;;3.60;1.30;;;;;;;14.96;60.06;101616.06;5033616;28;20026;-72
2022/09/02 03:38:08;;;;;;;2.55;1.23;;;;;;;14.87;60.39;101617.22;5031924;28;20178;-71
2022/09/02 03:40:34;;;;;;;1.73;1.20;;;;;;;15.02;60.07;101611.88;5033347;28;20057;-71
2022/09/02 03:42:59;;;;;;;5.93;1.20;;;;;;;14.91;60.20;101608.03;5031930;28;20075;-71
2022/09/02 03:45:24;;;;;;;1.58;1.10;;;;;;;14.88;60.46;101608.41;5032001;28;20029;-71
2022/09/02 03:47:52;;;;;;;3.17;1.20;;;;;;;14.96;60.04;101607.44;5033108;28;20029;-71
2022/09/02 03:50:20;;;;;;;3.53;1.23;;;;;;;14.89;60.35;101610.81;5033185;28;20397;-71
2022/09/02 03:52:46;;;;;;;8.80;1.23;;;;;;;14.92;60.37;101601.03;5031772;28;20116;-71
2022/09/02 03:55:11;;;;;;;2.42;1.30;;;;;;;14.85;60.58;101607.00;5032808;28;20049;-72
2022/09/02 03:57:37;;;;;;;1.60;1.13;;;;;;;14.75;61.01;101603.94;5032153;28;20112;-71
2022/09/02 04:00:08;;;;;;;4.78;1.50;;;;;;;14.87;60.73;101599.00;5032919;28;20113;-71
2022/09/02 04:02:34;;;;;;;1.88;1.23;;;;;;;14.85;60.47;101603.63;5033041;28;20018;-71
2022/09/02 04:04:59;;;;;;;2.13;1.40;;;;;;;14.74;61.17;101591.16;5032975;28;20100;-71
2022/09/02 04:07:24;;;;;;;2.22;1.27;;;;;;;14.79;61.35;101591.38;5033372;28;20123;-71
2022/09/02 04:09:50;;;;;;;2.28;1.20;;;;;;;14.68;61.70;101589.34;5031624;28;20528;-71
2022/09/02 04:12:15;;;;;;;2.28;1.20;;;;;;;14.73;61.70;101589.53;5031668;28;20083;-71
2022/09/02 04:14:41;;;;;;;2.20;1.25;;;;;;;14.64;61.64;101594.94;5031695;28;20087;-71
2022/09/02 04:17:07;;;;;;;5.28;1.40;;;;;;;14.58;61.63;101582.66;5032997;28;20057;-71
2022/09/02 04:19:32;;;;;;;2.25;1.25;;;;;;;14.73;61.22;101585.16;5033945;28;20124;-71
2022/09/02 04:21:57;;;;;;;2.35;1.30;;;;;;;14.82;61.19;101588.38;5036708;28;20036;-71
2022/09/02 04:24:23;;;;;;;3.13;1.45;;;;;;;14.94;60.55;101586.03;5036888;28;20108;-71
2022/09/02 04:26:48;;;;;;;5.40;1.38;;;;;;;14.78;61.64;101585.34;5035538;28;20071;-71
2022/09/02 04:29:14;;;;;;;2.88;1.35;;;;;;;14.66;61.49;101584.31;5036778;28;20028;-72
2022/09/02 04:31:39;;;;;;;2.33;1.30;;;;;;;14.57;62.06;101578.47;5035331;28;20026;-71
2022/09/02 04:34:05;;;;;;;5.32;1.50;;;;;;;14.59;61.81;101581.69;5036599;28;20104;-71
2022/09/02 04:36:31;;;;;;;2.55;1.40;;;;;;;14.55;61.84;101580.47;5036527;28;20036;-71
2022/09/02 04:38:57;;;;;;;3.72;1.33;;;;;;;14.57;61.97;101582.88;5036504;28;20029;-70
2022/09/02 04:41:25;;;;;;;3.80;1.30;;;;;;;14.66;62.05;101579.91;5036680;28;20025;-70
2022/09/02 04:43:53;;;;;;;2.85;1.42;;;;;;;14.69;61.99;101577.91;5036372;28;20086;-71
2022/09/02 04:46:18;;;;;;;2.75;1.20;;;;;;;14.72;61.82;101577.53;5039536;28;20032;-72
2022/09/02 04:48:44;;;;;;;5.47;1.50;;;;;;;14.55;62.24;101582.25;5038072;28;20389;-71
2022/09/02 04:51:19;;;;;;;2.05;1.30;;;;;;;14.57;62.07;101575.06;5038589;28;20076;-71
2022/09/02 04:53:46;;;;;;;6.03;1.52;;;;;;;14.53;62.22;101566.88;5037032;28;20397;-74
2022/09/02 04:56:15;;;;;;;3.55;1.63;;;;;;;14.63;62.29;101582.09;5036648;28;20017;-71
2022/09/02 04:58:43;;;;;;;5.65;1.40;;;;;;;14.60;62.35;101579.88;5036146;28;20030;-71
2022/09/02 05:01:14;;;;;;;2.40;1.30;;;;;;;14.65;62.30;101574.91;5034957;28;20053;-71
2022/09/02 05:03:41;;;;;;;4.43;1.50;;;;;;;14.82;61.23;101585.78;5036224;28;20092;-71
2022/09/02 05:06:09;;;;;;;3.35;1.42;;;;;;;14.71;61.85;101575.94;5035076;28;20221;-71
2022/09/02 05:08:37;;;;;;;2.13;1.33;;;;;;;14.62;62.72;101583.09;5034832;28;20392;-71
2022/09/02 05:11:07;;;;;;;2.75;1.50;;;;;;;14.74;62.06;101575.53;5036063;28;20025;-71
2022/09/02 05:13:32;;;;;;;11.50;1.98;;;;;;;14.92;61.13;101577.59;5034925;28;20092;-71
2022/09/02 05:15:57;;;;;;;2.53;1.48;;;;;;;14.72;61.65;101578.34;5034752;28;20045;-71
2022/09/02 05:18:23;;;;;;;4.43;2.20;;;;;;;14.86;61.43;101574.78;5034514;28;20080;-72
2022/09/02 05:20:48;;;;;;;3.33;1.50;;;;;;;14.79;61.71;101580.97;5035784;28;20426;-71
2022/09/02 05:23:13;;;;;;;3.33;1.58;;;;;;;14.94;61.19;101576.41;5034646;28;20033;-72
2022/09/02 05:25:39;;;;;;;3.53;1.50;;;;;;;14.85;61.59;101573.19;5035914;28;20109;-71
2022/09/02 05:28:07;;;;;;;4.32;1.42;;;;;;;15.11;60.64;101572.44;5035806;28;20048;-71
2022/09/02 05:30:34;;;;;;;6.65;1.50;;;;;;;15.18;60.83;101571.66;5035401;28;20021;-71
2022/09/02 05:32:59;;;;;;;4.60;1.65;;;;;;;15.07;60.54;101576.41;5035681;28;20060;-72
2022/09/02 05:35:25;;;;;;;5.43;1.50;;;;;;;15.22;61.25;101578.88;5035715;28;20025;-71
2022/09/02 05:37:50;;;;;;;6.05;1.40;;;;;;;15.53;59.77;101572.28;5034139;28;20032;-71
2022/09/02 05:40:15;;;;;;;3.53;1.70;;;;;;;15.77;59.00;101579.53;5034283;28;20091;-71
2022/09/02 05:42:42;;;;;;;3.22;1.50;;;;;;;15.61;59.96;101577.28;5034733;28;20021;-71
2022/09/02 05:45:08;;;;;;;3.83;1.55;;;;;;;15.78;58.68;101572.50;5035548;28;20473;-71
2022/09/02 05:47:34;;;;;;;3.05;1.52;;;;;;;15.73;59.47;101570.50;5037538;28;20028;-72
2022/09/02 05:50:00;;;;;;;8.20;1.50;;;;;;;15.81;58.71;101573.91;5035589;28;20431;-70
2022/09/02 05:52:26;;;;;;;6.63;1.70;;;;;;;15.91;59.19;101574.28;5035548;28;20532;-70
2022/09/02 05:54:53;;;;;;;4.78;1.45;;;;;;;15.96;58.04;101570.06;5035100;28;20057;-70
2022/09/02 05:57:19;;;;;;;5.03;1.73;;;;;;;15.96;58.09;101574.47;5035229;28;20143;-69
2022/09/02 05:59:46;;;;;;;2.63;1.40;;;;;;;16.03;57.62;101567.47;5035146;28;20033;-73
2022/09/02 06:02:13;;;;;;;2.05;1.40;;;;;;;16.29;56.92;101563.19;5033946;28;20018;-69
2022/09/02 06:04:42;;;;;;;3.67;1.67;;;;;;;16.27;56.87;101566.00;5035272;28;20113;-70
2022/09/02 06:07:07;;;;;;;3.35;1.50;;;;;;;16.46;56.17;101564.34;5035056;28;20021;-70
2022/09/02 06:09:32;;;;;;;13.57;2.00;;;;;;;17.11;54.96;101567.63;5034966;28;20151;-70
2022/09/02 06:11:57;;;;;;;4.93;1.60;;;;;;;18.63;50.51;101569.03;5034757;28;20040;-70
2022/09/02 06:14:24;;;;;;;5.10;1.60;;;;;;;17.54;52.74;101561.69;5033529;28;20041;-70
2022/09/02 06:16:51;;;;;;;3.00;1.60;;;;;;;16.78;54.89;101565.22;5034145;28;20507;-71
2022/09/02 06:19:17;;;;;;;7.03;1.80;;;;;;;17.11;54.22;101562.41;5034505;28;20028;-70
2022/09/02 06:21:42;;;;;;;7.18;1.60;;;;;;;16.87;54.63;101537.88;5037878;28;20025;-72
2022/09/02 06:24:09;;;;;;;9.05;1.92;;;;;;;17.04;53.54;101560.88;5036732;28;20108;-71
2022/09/02 06:26:36;;;;;;;6.22;1.88;;;;;;;16.86;54.20;101566.78;5034408;28;20056;-72
2022/09/02 06:29:03;;;;;;;5.55;1.88;;;;;;;16.87;53.88;101563.16;5034631;28;20094;-71
2022/09/02 06:31:28;;;;;;;5.38;1.75;;;;;;;16.70;54.43;101553.19;5034570;28;20025;-72
2022/09/02 06:33:55;;;;;;;4.38;1.80;;;;;;;16.98;53.67;101559.91;5034478;28;20138;-72
2022/09/02 06:36:23;;;;;;;14.93;1.85;;;;;;;17.24;53.71;101560.75;5035347;28;20025;-71
2022/09/02 06:38:50;;;;;;;8.70;1.63;;;;;;;17.56;52.84;101564.91;5034613;28;20071;-71
2022/09/02 06:41:22;;;;;;;9.23;2.00;;;;;;;17.92;51.55;101560.75;5034289;28;20028;-72
2022/09/02 06:43:48;;;;;;;6.93;2.03;;;;;;;20.18;47.00;101565.38;5032433;28;20125;-72
2022/09/02 06:46:18;;;;;;;8.75;1.77;;;;;;;22.44;42.23;101560.03;5033141;28;20029;-72
2022/09/02 06:48:44;;;;;;;5.32;1.85;;;;;;;22.56;40.94;101561.69;5034115;28;20025;-72
2022/09/02 06:51:18;;;;;;;2.97;1.58;;;;;;;22.54;40.46;101559.31;5033963;28;20053;-72
2022/09/02 06:53:43;;;;;;;4.47;1.83;;;;;;;22.98;39.47;101552.09;5032305;28;20082;-71
2022/09/02 06:56:09;;;;;;;3.88;1.50;;;;;;;23.38;38.99;101553.47;5032090;28;20489;-73
2022/09/02 06:58:35;;;;;;;5.40;2.20;;;;;;;24.53;36.75;101549.25;5033634;28;20025;-72
2022/09/02 07:01:00;;;;;;;6.97;2.38;;;;;;;24.85;36.20;101549.00;5032427;28;20168;-72
2022/09/02 07:06:10;;;;;;;5.05;1.60;;;;;;;24.19;37.25;101543.59;5032834;28;20041;-73
2022/09/02 07:08:38;;;;;;;10.90;1.92;;;;;;;25.11;35.14;101551.66;5032838;28;20026;-73
2022/09/02 07:11:05;;;;;;;3.30;1.70;;;;;;;25.09;34.81;101538.72;5033598;28;20036;-72
2022/09/02 07:13:31;;;;;;;5.45;1.63;;;;;;;24.93;35.57;101545.06;5034023;28;20124;-73
2022/09/02 07:15:57;;;;;;;7.53;1.63;;;;;;;23.15;38.98;101546.72;5033699;28;20022;-73
2022/09/02 07:18:22;;;;;;;4.95;1.60;;;;;;;24.25;36.38;101551.25;5032419;28;20032;-73
2022/09/02 07:20:47;;;;;;;7.63;1.50;;;;;;;22.77;39.39;101537.16;5033430;28;20104;-72
2022/09/02 07:23:14;;;;;;;3.60;1.50;;;;;;;23.70;37.92;101547.34;5033563;28;20041;-72
2022/09/02 07:25:40;;;;;;;11.25;1.60;;;;;;;24.78;35.84;101540.56;5033663;28;20028;-72
2022/09/02 07:28:07;;;;;;;8.38;1.45;;;;;;;24.54;35.85;101543.72;5033533;28;20025;-72
2022/09/02 07:30:32;;;;;;;11.40;1.67;;;;;;;24.19;37.01;101540.94;5033439;28;20021;-72
2022/09/02 07:32:58;;;;;;;9.20;1.50;;;;;;;25.82;34.49;101545.44;5033302;28;20029;-72
2022/09/02 07:35:24;;;;;;;5.18;1.80;;;;;;;25.72;34.61;101542.81;5032247;28;20018;-73
2022/09/02 07:37:49;;;;;;;3.83;1.50;;;;;;;25.93;34.23;101536.44;5032934;28;20034;-73
2022/09/02 07:40:16;;;;;;;11.15;1.50;;;;;;;26.17;33.97;101549.81;5031312;28;20523;-72
2022/09/02 07:42:42;;;;;;;13.77;2.17;;;;;;;25.43;34.93;101535.50;5033804;28;20026;-71
2022/09/02 07:45:09;;;;;;;5.85;1.35;;;;;;;24.63;36.35;101529.97;5033119;28;20048;-70
2022/09/02 07:47:34;;;;;;;3.95;1.55;;;;;;;24.89;35.48;101530.78;5033179;28;20040;-70
2022/09/02 07:49:59;;;;;;;4.13;1.50;;;;;;;25.44;34.86;101529.16;5032149;28;20025;-71
2022/09/02 07:52:25;;;;;;;4.32;1.60;;;;;;;25.25;34.62;101526.28;5033183;28;20083;-71
2022/09/02 07:54:50;;;;;;;7.10;1.85;;;;;;;26.23;34.11;101506.31;5032907;28;20056;-71
2022/09/02 07:57:15;;;;;;;9.15;1.80;;;;;;;27.21;32.26;101524.94;5033227;28;20030;-72
2022/09/02 07:59:41;;;;;;;5.32;1.45;;;;;;;27.11;32.29;101525.03;5033259;28;20083;-71
2022/09/02 08:02:08;;;;;;;8.85;1.80;;;;;;;25.79;33.70;101524.81;5031820;28;20025;-71
2022/09/02 08:04:33;;;;;;;9.52;1.60;;;;;;;27.47;31.71;101520.16;5033077;28;20033;-71
2022/09/02 08:06:59;;;;;;;5.50;1.60;;;;;;;27.62;31.36;101521.84;5031706;28;20101;-72
2022/09/02 08:09:24;;;;;;;5.85;1.70;;;;;;;27.02;31.60;101516.91;5031940;28;20473;-71
2022/09/02 08:11:50;;;;;;;6.82;1.70;;;;;;;26.68;32.40;101528.31;5033029;28;20079;-72
2022/09/02 08:14:20;;;;;;;11.15;1.80;;;;;;;26.39;33.22;101522.16;5033027;28;20033;-71
2022/09/02 08:16:47;;;;;;;5.03;1.80;;;;;;;25.29;34.05;101522.06;5033216;28;20017;-71
2022/09/02 08:19:12;;;;;;;11.13;1.85;;;;;;;26.01;34.16;101512.03;5032913;28;20480;-71
2022/09/02 08:21:38;;;;;;;3.15;1.60;;;;;;;26.86;32.63;101510.94;5032991;28;20040;-72
2022/09/02 08:24:04;;;;;;;3.55;1.70;;;;;;;26.33;32.85;101519.53;5032845;28;20033;-72
2022/09/02 08:26:29;;;;;;;8.80;2.03;;;;;;;25.53;34.00;101524.91;5033012;28;20033;-72
2022/09/02 08:28:55;;;;;;;8.93;1.60;;;;;;;24.98;35.29;101515.97;5032822;28;20025;-71
2022/09/02 08:31:20;;;;;;;6.68;1.65;;;;;;;25.74;34.15;101512.38;5033120;28;20018;-72
2022/09/02 08:33:46;;;;;;;9.18;1.50;;;;;;;25.63;34.40;101516.91;5031632;28;20040;-72
2022/09/02 08:36:13;;;;;;;4.28;1.67;;;;;;;26.26;33.28;101515.59;5032121;28;20033;-73
2022/09/02 08:38:43;;;;;;;10.43;1.70;;;;;;;24.91;35.42;101513.59;5033083;28;20391;-73
2022/09/02 08:41:30;;;;;;;3.42;1.65;;;;;;;24.23;36.36;101510.34;5031776;28;20025;-73
2022/09/02 08:43:58;;;;;;;5.40;1.90;;;;;;;24.93;35.04;101508.84;5032941;28;20021;-72
2022/09/02 08:46:26;;;;;;;6.75;1.73;;;;;;;24.82;35.89;101509.09;5032779;28;20116;-72
2022/09/02 08:48:58;;;;;;;4.13;1.73;;;;;;;25.26;35.07;101505.91;5032920;28;20033;-73
2022/09/02 08:51:39;;;;;;;5.72;1.70;;;;;;;23.82;37.70;101513.66;5032995;28;20021;-73
2022/09/02 08:54:11;;;;;;;5.75;1.98;;;;;;;23.77;37.65;101515.47;5032350;28;20473;-72
2022/09/02 08:56:37;;;;;;;4.80;1.92;;;;;;;22.76;39.43;101498.69;5032717;28;20022;-73
2022/09/02 08:59:03;;;;;;;6.60;1.80;;;;;;;23.18;39.34;101500.59;5032981;28;20025;-72
2022/09/02 09:01:45;;;;;;;4.15;1.52;;;;;;;23.88;38.10;101496.00;5032853;28;20036;-73
2022/09/02 09:04:29;;;;;;;8.60;2.20;;;;;;;24.47;37.17;101494.81;5032647;28;20392;-73
2022/09/02 09:07:06;;;;;;;8.07;1.98;;;;;;;23.92;37.88;101499.69;5034449;28;20088;-73
2022/09/02 09:09:55;;;;;;;5.28;1.83;;;;;;;23.03;39.63;101497.88;5036186;28;20030;-73
2022/09/02 09:12:41;;;;;;;5.30;1.98;;;;;;;23.33;39.47;101499.88;5038187;28;20021;-72
2022/09/02 09:15:39;;;;;;;12.25;2.28;;;;;;;23.29;39.62;101501.47;5037158;28;20393;-72
2022/09/02 09:18:08;;;;;;;9.07;1.90;;;;;;;24.36;37.96;101493.19;5036710;28;20132;-73
2022/09/02 09:20:39;;;;;;;7.22;1.85;;;;;;;24.88;38.19;101492.19;5035582;28;20053;-72
2022/09/02 09:23:17;;;;;;;3.65;1.75;;;;;;;24.78;37.66;101495.63;5036399;28;20033;-72
2022/09/02 09:25:47;;;;;;;3.65;1.92;;;;;;;25.15;37.58;101487.44;5037944;28;20105;-72
2022/09/02 09:28:12;;;;;;;8.20;1.92;;;;;;;25.30;37.61;101488.47;5035045;28;20029;-71
2022/09/02 09:30:38;;;;;;;14.70;1.90;;;;;;;25.11;36.92;101488.19;5036134;28;20488;-73
2022/09/02 09:33:04;;;;;;;7.18;2.08;;;;;;;25.01;38.04;101488.22;5036142;28;20028;-73
2022/09/02 09:35:53;;;;;;;8.80;1.80;;;;;;;25.34;36.77;101484.19;5034365;28;20018;-73
2022/09/02 09:38:37;;;;;;;6.68;1.80;;;;;;;24.90;37.55;101485.56;5044564;28;20041;-73
2022/09/02 09:41:13;;;;;;;4.63;1.90;;;;;;;25.11;37.39;101483.69;5035044;28;20562;-73
2022/09/02 09:43:38;;;;;;;10.75;2.22;;;;;;;25.82;36.40;101487.22;5036048;28;20033;-74
2022/09/02 09:46:31;;;;;;;6.35;2.03;;;;;;;25.18;37.21;101483.47;5034935;28;20021;-74
2022/09/02 09:48:56;;;;;;;3.35;2.20;;;;;;;24.95;37.09;101480.28;5035189;28;20025;-74
2022/09/02 09:51:22;;;;;;;5.45;2.38;;;;;;;25.02;37.16;101485.28;5036289;28;20098;-74
2022/09/02 09:53:47;;;;;;;3.60;1.85;;;;;;;25.28;37.91;101485.28;5035678;28;20072;-73
2022/09/02 09:56:12;;;;;;;13.45;2.33;;;;;;;26.42;35.40;101482.63;5035917;28;20033;-75
2022/09/02 09:58:37;;;;;;;7.50;2.17;;;;;;;26.94;35.08;101475.06;5037076;28;20021;-73
2022/09/02 10:01:30;;;;;;;4.30;2.07;;;;;;;26.11;35.24;101474.88;5035336;28;20061;-73
2022/09/02 10:03:57;;;;;;;;;;;;;;;26.70;35.19;101483.78;5033658;28;20072;-74
2022/09/02 10:06:29;;;;;;;7.20;2.25;;;;;;;25.93;35.79;101466.81;5036170;28;20015;-72
2022/09/02 10:08:57;;;;;;;12.15;2.30;;;;;;;26.26;35.31;101475.84;5035521;28;20029;-72
2022/09/02 10:11:26;;;;;;;15.68;2.28;;;;;;;26.68;34.82;101472.66;5034043;28;20030;-73
2022/09/02 10:13:59;;;;;;;6.00;2.03;;;;;;;26.65;34.98;101467.13;5036008;28;20021;-73
2022/09/02 10:16:41;;;;;;;5.40;2.33;;;;;;;26.59;34.64;101476.19;5034683;28;20346;-75
2022/09/02 10:19:34;;;;;;;3.75;2.20;;;;;;;26.03;35.21;101462.22;5034715;28;20397;-75
2022/09/02 10:22:20;;;;;;;3.50;2.00;;;;;;;27.03;34.25;101467.28;5035352;28;20048;-73
2022/09/02 10:25:18;;;;;;;6.18;2.47;;;;;;;26.85;35.10;101456.31;5034053;28;20469;-74
2022/09/02 10:28:12;;;;;;;7.03;2.20;;;;;;;25.60;36.27;101461.09;5033778;28;20025;-73
2022/09/02 10:31:16;;;;;;;5.35;2.60;;;;;;;25.76;36.08;101456.53;5033259;28;20037;-72
2022/09/02 10:34:20;;;;;;;5.03;2.38;;;;;;;26.95;34.99;101452.78;5001391;28;20129;-73
2022/09/02 10:37:04;;;;;;;5.95;2.13;;;;;;;26.69;35.23;101449.56;5034523;28;20058;-73
2022/09/02 10:39:51;;;;;;;6.20;2.20;;;;;;;26.70;34.54;101449.31;5033081;28;20079;-73
2022/09/02 10:42:39;;;;;;;9.02;2.30;;;;;;;25.81;36.42;101453.88;5035055;28;20074;-73
2022/09/02 10:45:27;;;;;;;4.10;1.95;;;;;;;26.17;35.68;101445.72;5034585;28;20473;-74
2022/09/02 10:48:12;;;;;;;7.47;1.90;;;;;;;27.89;34.02;101438.97;5022644;28;20056;-73
2022/09/02 10:50:47;;;;;;;7.50;2.30;;;;;;;28.11;33.19;101433.84;5033376;28;20120;-73
2022/09/02 10:53:31;;;;;;;6.75;2.70;;;;;;;27.84;33.54;101434.50;5033013;28;20033;-74
2022/09/02 10:56:25;;;;;;;9.23;2.30;;;;;;;27.16;34.14;101434.81;5033177;28;20045;-75
2022/09/02 10:59:02;;;;;;;6.78;2.28;;;;;;;27.25;34.17;101427.00;5032430;28;20037;-75
2022/09/02 11:01:32;;;;;;;10.18;2.58;;;;;;;27.59;33.25;101426.84;5033853;28;20081;-74
2022/09/02 11:04:01;;;;;;;5.28;2.10;;;;;;;28.57;33.20;101424.38;5035095;28;20026;-74
2022/09/02 11:06:31;;;;;;;7.45;2.15;;;;;;;27.91;32.79;101423.53;5034629;28;20029;-75
2022/09/02 11:09:06;;;;;;;8.18;1.90;;;;;;;28.84;32.36;101422.81;5032483;28;20499;-75
2022/09/02 11:11:41;;;;;;;5.90;2.45;;;;;;;27.25;33.21;101441.09;5033647;28;20036;-74
2022/09/02 11:14:19;;;;;;;8.85;2.40;;;;;;;27.27;33.19;101432.81;5033880;28;20422;-74
2022/09/02 11:16:54;;;;;;;4.38;2.08;;;;;;;28.18;32.47;101433.47;5032962;28;20029;-73
2022/09/02 11:19:32;;;;;;;9.38;2.20;;;;;;;27.65;33.35;101425.72;5032388;28;20173;-74
2022/09/02 11:22:23;;;;;;;7.10;2.20;;;;;;;27.21;33.67;101422.28;5033814;28;20029;-74
2022/09/02 11:25:01;;;;;;;9.30;2.40;;;;;;;27.50;33.53;101421.38;5033842;28;20021;-73
2022/09/02 11:28:00;;;;;;;11.18;2.35;;;;;;;27.59;33.43;101413.56;5033610;28;20021;-76
2022/09/02 11:30:37;;;;;;;5.25;1.80;;;;;;;28.71;32.73;101403.09;5017942;28;20033;-76
2022/09/02 11:33:20;;;;;;;9.88;2.03;;;;;;;28.60;32.33;101394.53;5032122;28;20025;-73
2022/09/02 11:35:45;;;;;;;5.80;2.22;;;;;;;27.56;33.13;101406.19;5033004;28;20026;-73
2022/09/02 11:38:14;;;;;;;4.22;2.20;;;;;;;28.39;32.01;101393.28;5033625;28;20030;-73